CheckWX is a tool to help pilots better visualize weather data.  It is not intended as a substitute for an official pre-flight weather briefing.

12:50:13 UTC

KJXN TAF
Jackson County-Reynolds Field Airport
Jackson, Michigan, USA
KJXN 191121Z 1912/2012 15006KT P6SM SCT250

Sep-19@
12:00 UTC

Sep-19 @ 12:00 UTC

Sep-20@
12:00 UTC

Sep-20 @ 12:00 UTC

KJXN 191121Z 1912/2012 15006KT P6SM SCT250
Wind
  • 150° at 6 KTS
Cloud Levels
  • Scattered at 25,000' AGL